sensor_id;sensor_type;location;lat;lon;timestamp;temperature;humidity
569;DHT22;269;48.884;9.192;2023-03-01T00:01:00;0.90;99.90
569;DHT22;269;48.884;9.192;2023-03-01T00:03:27;0.90;99.90
569;DHT22;269;48.884;9.192;2023-03-01T00:05:54;0.90;99.90
569;DHT22;269;48.884;9.192;2023-03-01T00:08:23;0.90;99.90
569;DHT22;269;48.884;9.192;2023-03-01T00:10:59;0.80;99.90
569;DHT22;269;48.884;9.192;2023-03-01T00:13:27;0.80;99.90
569;DHT22;269;48.884;9.192;2023-03-01T00:15:54;0.70;99.90
569;DHT22;269;48.884;9.192;2023-03-01T00:18:21;0.70;99.90
569;DHT22;269;48.884;9.192;2023-03-01T00:20:50;0.60;99.90
569;DHT22;269;48.884;9.192;2023-03-01T00:23:17;0.60;99.90
569;DHT22;269;48.884;9.192;2023-03-01T00:25:45;0.50;99.90
569;DHT22;269;48.884;9.192;2023-03-01T00:28:13;0.50;99.90
569;DHT22;269;48.884;9.192;2023-03-01T00:30:40;0.50;99.90
569;DHT22;269;48.884;9.192;2023-03-01T00:33:07;0.50;99.90
569;DHT22;269;48.884;9.192;2023-03-01T00:35:35;0.50;99.90
569;DHT22;269;48.884;9.192;2023-03-01T00:38:02;0.50;99.90
569;DHT22;269;48.884;9.192;2023-03-01T00:40:31;0.60;99.90
569;DHT22;269;48.884;9.192;2023-03-01T00:43:01;0.60;99.90
569;DHT22;269;48.884;9.192;2023-03-01T00:45:28;0.60;99.90
569;DHT22;269;48.884;9.192;2023-03-01T00:47:56;0.60;99.90
569;DHT22;269;48.884;9.192;2023-03-01T00:50:24;0.60;99.90
569;DHT22;269;48.884;9.192;2023-03-01T00:52:52;0.50;99.90
569;DHT22;269;48.884;9.192;2023-03-01T00:55:20;0.50;99.90
569;DHT22;269;48.884;9.192;2023-03-01T00:57:47;0.50;99.90
569;DHT22;269;48.884;9.192;2023-03-01T01:00:17;0.50;99.90
569;DHT22;269;48.884;9.192;2023-03-01T01:02:44;0.50;99.90
569;DHT22;269;48.884;9.192;2023-03-01T01:05:11;0.50;99.90
569;DHT22;269;48.884;9.192;2023-03-01T01:07:38;0.40;99.90
569;DHT22;269;48.884;9.192;2023-03-01T01:10:06;0.40;99.90
569;DHT22;269;48.884;9.192;2023-03-01T01:12:34;0.40;99.90
569;DHT22;269;48.884;9.192;2023-03-01T01:15:01;0.40;99.90
569;DHT22;269;48.884;9.192;2023-03-01T01:17:29;0.40;99.90
569;DHT22;269;48.884;9.192;2023-03-01T01:19:56;0.30;99.90
569;DHT22;269;48.884;9.192;2023-03-01T01:22:23;0.30;99.90
569;DHT22;269;48.884;9.192;2023-03-01T01:24:50;0.30;99.90
569;DHT22;269;48.884;9.192;2023-03-01T01:27:17;0.30;99.90
569;DHT22;269;48.884;9.192;2023-03-01T01:29:44;0.30;99.90
569;DHT22;269;48.884;9.192;2023-03-01T01:32:11;0.30;99.90
569;DHT22;269;48.884;9.192;2023-03-01T01:34:39;0.30;99.90
569;DHT22;269;48.884;9.192;2023-03-01T01:37:06;0.30;99.90
569;DHT22;269;48.884;9.192;2023-03-01T01:39:33;0.30;99.90
569;DHT22;269;48.884;9.192;2023-03-01T01:42:01;0.20;99.90
569;DHT22;269;48.884;9.192;2023-03-01T01:44:29;0.20;99.90
569;DHT22;269;48.884;9.192;2023-03-01T01:46:58;0.20;99.90
569;DHT22;269;48.884;9.192;2023-03-01T01:49:30;0.20;99.90
569;DHT22;269;48.884;9.192;2023-03-01T01:52:02;0.10;99.90
569;DHT22;269;48.884;9.192;2023-03-01T01:54:42;0.20;99.90
569;DHT22;269;48.884;9.192;2023-03-01T01:57:14;0.20;99.90
569;DHT22;269;48.884;9.192;2023-03-01T01:59:45;0.10;99.90
569;DHT22;269;48.884;9.192;2023-03-01T02:02:14;0.20;99.90
569;DHT22;269;48.884;9.192;2023-03-01T02:04:41;0.20;99.90
569;DHT22;269;48.884;9.192;2023-03-01T02:07:15;0.10;99.90
569;DHT22;269;48.884;9.192;2023-03-01T02:09:43;0.20;99.90
569;DHT22;269;48.884;9.192;2023-03-01T02:12:13;0.20;99.90
569;DHT22;269;48.884;9.192;2023-03-01T02:14:40;0.30;99.90
569;DHT22;269;48.884;9.192;2023-03-01T02:17:07;0.30;99.90
569;DHT22;269;48.884;9.192;2023-03-01T02:19:43;0.30;99.90
569;DHT22;269;48.884;9.192;2023-03-01T02:22:22;0.30;99.90
569;DHT22;269;48.884;9.192;2023-03-01T02:24:57;0.30;99.90
569;DHT22;269;48.884;9.192;2023-03-01T02:27:35;0.40;99.90
569;DHT22;269;48.884;9.192;2023-03-01T02:30:06;0.50;99.90
569;DHT22;269;48.884;9.192;2023-03-01T02:32:34;0.50;99.90
569;DHT22;269;48.884;9.192;2023-03-01T02:35:01;0.50;99.90
569;DHT22;269;48.884;9.192;2023-03-01T02:37:32;0.50;99.90
569;DHT22;269;48.884;9.192;2023-03-01T02:40:05;0.50;99.90
569;DHT22;269;48.884;9.192;2023-03-01T02:42:44;0.50;99.90
569;DHT22;269;48.884;9.192;2023-03-01T02:45:13;0.50;99.90
569;DHT22;269;48.884;9.192;2023-03-01T02:47:40;0.50;99.90
569;DHT22;269;48.884;9.192;2023-03-01T02:50:15;0.50;99.90
569;DHT22;269;48.884;9.192;2023-03-01T02:52:48;0.50;99.90
569;DHT22;269;48.884;9.192;2023-03-01T02:55:20;0.60;99.90
569;DHT22;269;48.884;9.192;2023-03-01T02:57:48;0.60;99.90
569;DHT22;269;48.884;9.192;2023-03-01T03:00:20;0.70;99.90
569;DHT22;269;48.884;9.192;2023-03-01T03:02:50;0.70;99.90
569;DHT22;269;48.884;9.192;2023-03-01T03:05:19;0.70;99.90
569;DHT22;269;48.884;9.192;2023-03-01T03:07:48;0.80;99.90
569;DHT22;269;48.884;9.192;2023-03-01T03:10:18;0.80;99.90
569;DHT22;269;48.884;9.192;2023-03-01T03:12:49;0.80;99.90
569;DHT22;269;48.884;9.192;2023-03-01T03:15:17;0.90;99.90
569;DHT22;269;48.884;9.192;2023-03-01T03:17:46;0.90;99.90
569;DHT22;269;48.884;9.192;2023-03-01T03:20:15;0.90;99.90
569;DHT22;269;48.884;9.192;2023-03-01T03:22:45;0.70;99.90
569;DHT22;269;48.884;9.192;2023-03-01T03:25:13;1.00;99.90
569;DHT22;269;48.884;9.192;2023-03-01T03:27:41;1.00;99.90
569;DHT22;269;48.884;9.192;2023-03-01T03:30:10;1.00;99.90
569;DHT22;269;48.884;9.192;2023-03-01T03:32:40;1.00;99.90
569;DHT22;269;48.884;9.192;2023-03-01T03:35:09;1.00;99.90
569;DHT22;269;48.884;9.192;2023-03-01T03:37:36;1.00;99.90
569;DHT22;269;48.884;9.192;2023-03-01T03:40:21;1.00;99.90
569;DHT22;269;48.884;9.192;2023-03-01T03:42:48;1.10;99.90
569;DHT22;269;48.884;9.192;2023-03-01T03:45:15;1.10;99.90
569;DHT22;269;48.884;9.192;2023-03-01T03:47:44;1.10;99.90
569;DHT22;269;48.884;9.192;2023-03-01T03:50:12;1.10;99.90
569;DHT22;269;48.884;9.192;2023-03-01T03:52:40;1.10;99.90
569;DHT22;269;48.884;9.192;2023-03-01T03:55:08;1.20;99.90
569;DHT22;269;48.884;9.192;2023-03-01T03:57:36;1.20;99.90
569;DHT22;269;48.884;9.192;2023-03-01T04:00:05;1.20;99.90
569;DHT22;269;48.884;9.192;2023-03-01T04:02:39;1.20;99.90
569;DHT22;269;48.884;9.192;2023-03-01T04:05:08;1.20;99.90
569;DHT22;269;48.884;9.192;2023-03-01T04:07:36;1.20;99.90
569;DHT22;269;48.884;9.192;2023-03-01T04:10:04;1.20;99.90
569;DHT22;269;48.884;9.192;2023-03-01T04:12:32;1.20;99.90
569;DHT22;269;48.884;9.192;2023-03-01T04:15:00;1.20;99.90
569;DHT22;269;48.884;9.192;2023-03-01T04:17:27;1.20;99.90
569;DHT22;269;48.884;9.192;2023-03-01T04:19:54;1.20;99.90
569;DHT22;269;48.884;9.192;2023-03-01T04:22:22;1.20;99.90
569;DHT22;269;48.884;9.192;2023-03-01T04:24:55;1.20;99.90
569;DHT22;269;48.884;9.192;2023-03-01T04:27:22;1.20;99.90
569;DHT22;269;48.884;9.192;2023-03-01T04:29:50;1.20;99.90
569;DHT22;269;48.884;9.192;2023-03-01T04:32:17;1.30;99.90
569;DHT22;269;48.884;9.192;2023-03-01T04:34:44;1.30;99.90
569;DHT22;269;48.884;9.192;2023-03-01T04:37:11;1.30;99.90
569;DHT22;269;48.884;9.192;2023-03-01T04:39:40;1.40;99.90
569;DHT22;269;48.884;9.192;2023-03-01T04:42:11;1.40;99.90
569;DHT22;269;48.884;9.192;2023-03-01T04:44:38;1.30;99.90
569;DHT22;269;48.884;9.192;2023-03-01T04:47:05;1.30;99.90
569;DHT22;269;48.884;9.192;2023-03-01T04:49:32;1.40;99.90
569;DHT22;269;48.884;9.192;2023-03-01T04:51:59;1.30;99.90
569;DHT22;269;48.884;9.192;2023-03-01T04:54:27;1.20;99.90
569;DHT22;269;48.884;9.192;2023-03-01T04:56:56;1.10;99.90
569;DHT22;269;48.884;9.192;2023-03-01T04:59:24;1.10;99.90
569;DHT22;269;48.884;9.192;2023-03-01T05:01:51;1.10;99.90
569;DHT22;269;48.884;9.192;2023-03-01T05:04:18;1.10;99.90
569;DHT22;269;48.884;9.192;2023-03-01T05:06:45;1.20;99.90
569;DHT22;269;48.884;9.192;2023-03-01T05:09:12;1.20;99.90
569;DHT22;269;48.884;9.192;2023-03-01T05:11:39;1.30;99.90
569;DHT22;269;48.884;9.192;2023-03-01T05:14:08;1.30;99.90
569;DHT22;269;48.884;9.192;2023-03-01T05:16:36;1.30;99.90
569;DHT22;269;48.884;9.192;2023-03-01T05:19:03;1.40;99.90
569;DHT22;269;48.884;9.192;2023-03-01T05:21:37;1.40;99.90
569;DHT22;269;48.884;9.192;2023-03-01T05:24:25;1.40;99.90
569;DHT22;269;48.884;9.192;2023-03-01T05:26:52;1.40;99.90
569;DHT22;269;48.884;9.192;2023-03-01T05:29:22;1.40;99.90
569;DHT22;269;48.884;9.192;2023-03-01T05:31:52;1.50;99.90
569;DHT22;269;48.884;9.192;2023-03-01T05:34:23;1.50;99.90
569;DHT22;269;48.884;9.192;2023-03-01T05:36:51;1.50;99.90
569;DHT22;269;48.884;9.192;2023-03-01T05:39:20;1.50;99.90
569;DHT22;269;48.884;9.192;2023-03-01T05:41:48;1.50;99.90
569;DHT22;269;48.884;9.192;2023-03-01T05:44:18;1.50;99.90
569;DHT22;269;48.884;9.192;2023-03-01T05:46:47;1.60;99.90
569;DHT22;269;48.884;9.192;2023-03-01T05:49:15;1.60;99.90
569;DHT22;269;48.884;9.192;2023-03-01T05:51:43;1.60;99.90
569;DHT22;269;48.884;9.192;2023-03-01T05:54:14;1.60;99.90
569;DHT22;269;48.884;9.192;2023-03-01T05:56:42;1.60;99.90
569;DHT22;269;48.884;9.192;2023-03-01T05:59:08;1.60;99.90
569;DHT22;269;48.884;9.192;2023-03-01T06:01:36;1.70;99.90
569;DHT22;269;48.884;9.192;2023-03-01T06:04:04;1.70;99.90
569;DHT22;269;48.884;9.192;2023-03-01T06:06:33;1.70;99.90
569;DHT22;269;48.884;9.192;2023-03-01T06:09:03;1.60;99.90
569;DHT22;269;48.884;9.192;2023-03-01T06:11:30;1.60;99.90
569;DHT22;269;48.884;9.192;2023-03-01T06:13:57;1.60;99.90
569;DHT22;269;48.884;9.192;2023-03-01T06:16:24;1.60;99.90
569;DHT22;269;48.884;9.192;2023-03-01T06:18:51;1.60;99.90
569;DHT22;269;48.884;9.192;2023-03-01T06:21:19;1.60;99.90
569;DHT22;269;48.884;9.192;2023-03-01T06:23:47;1.60;99.90
569;DHT22;269;48.884;9.192;2023-03-01T06:26:14;1.60;99.90
569;DHT22;269;48.884;9.192;2023-03-01T06:28:41;1.60;99.90
569;DHT22;269;48.884;9.192;2023-03-01T06:31:08;1.60;99.90
569;DHT22;269;48.884;9.192;2023-03-01T06:33:35;1.60;99.90
569;DHT22;269;48.884;9.192;2023-03-01T06:36:03;1.60;99.90
569;DHT22;269;48.884;9.192;2023-03-01T06:38:31;1.60;99.90
569;DHT22;269;48.884;9.192;2023-03-01T06:40:58;1.70;99.90
569;DHT22;269;48.884;9.192;2023-03-01T06:43:25;1.70;99.90
569;DHT22;269;48.884;9.192;2023-03-01T06:45:52;1.80;99.90
569;DHT22;269;48.884;9.192;2023-03-01T06:48:19;1.80;99.90
569;DHT22;269;48.884;9.192;2023-03-01T06:50:46;1.80;99.90
569;DHT22;269;48.884;9.192;2023-03-01T06:53:13;1.80;99.90
569;DHT22;269;48.884;9.192;2023-03-01T06:55:41;1.70;99.90
569;DHT22;269;48.884;9.192;2023-03-01T06:58:09;1.70;99.90
569;DHT22;269;48.884;9.192;2023-03-01T07:00:36;1.70;99.90
569;DHT22;269;48.884;9.192;2023-03-01T07:03:03;1.70;99.90
569;DHT22;269;48.884;9.192;2023-03-01T07:05:30;1.80;99.90
569;DHT22;269;48.884;9.192;2023-03-01T07:07:58;1.80;99.90
569;DHT22;269;48.884;9.192;2023-03-01T07:10:25;1.80;99.90
569;DHT22;269;48.884;9.192;2023-03-01T07:12:55;1.80;99.90
569;DHT22;269;48.884;9.192;2023-03-01T07:15:23;1.80;99.90
569;DHT22;269;48.884;9.192;2023-03-01T07:17:50;1.80;99.90
569;DHT22;269;48.884;9.192;2023-03-01T07:20:17;1.90;99.90
569;DHT22;269;48.884;9.192;2023-03-01T07:22:44;1.90;99.90
569;DHT22;269;48.884;9.192;2023-03-01T07:25:12;1.90;99.90
569;DHT22;269;48.884;9.192;2023-03-01T07:27:39;2.00;99.90
569;DHT22;269;48.884;9.192;2023-03-01T07:30:09;2.00;99.90
569;DHT22;269;48.884;9.192;2023-03-01T07:32:36;2.20;99.90
569;DHT22;269;48.884;9.192;2023-03-01T07:35:04;2.30;99.90
569;DHT22;269;48.884;9.192;2023-03-01T07:37:31;2.40;99.90
569;DHT22;269;48.884;9.192;2023-03-01T07:39:58;2.40;99.90
569;DHT22;269;48.884;9.192;2023-03-01T07:42:25;2.50;99.90
569;DHT22;269;48.884;9.192;2023-03-01T07:44:52;2.60;99.90
569;DHT22;269;48.884;9.192;2023-03-01T07:47:20;2.70;99.90
569;DHT22;269;48.884;9.192;2023-03-01T07:49:48;2.90;99.90
569;DHT22;269;48.884;9.192;2023-03-01T07:52:15;3.10;99.90
569;DHT22;269;48.884;9.192;2023-03-01T07:54:43;3.20;99.90
569;DHT22;269;48.884;9.192;2023-03-01T07:57:10;3.50;99.90
569;DHT22;269;48.884;9.192;2023-03-01T07:59:38;3.50;99.90
569;DHT22;269;48.884;9.192;2023-03-01T08:02:05;3.70;99.90
569;DHT22;269;48.884;9.192;2023-03-01T08:04:34;3.90;99.90
569;DHT22;269;48.884;9.192;2023-03-01T08:07:01;4.10;99.90
569;DHT22;269;48.884;9.192;2023-03-01T08:09:28;4.30;99.90
569;DHT22;269;48.884;9.192;2023-03-01T08:11:56;4.50;99.90
569;DHT22;269;48.884;9.192;2023-03-01T08:14:25;4.80;99.90
569;DHT22;269;48.884;9.192;2023-03-01T08:16:52;4.90;99.90
569;DHT22;269;48.884;9.192;2023-03-01T08:19:19;5.20;99.90
569;DHT22;269;48.884;9.192;2023-03-01T08:21:48;5.40;99.90
569;DHT22;269;48.884;9.192;2023-03-01T08:24:15;5.60;99.90
569;DHT22;269;48.884;9.192;2023-03-01T08:26:42;5.80;99.90
569;DHT22;269;48.884;9.192;2023-03-01T08:29:09;6.00;99.90
569;DHT22;269;48.884;9.192;2023-03-01T08:31:39;6.20;99.90
569;DHT22;269;48.884;9.192;2023-03-01T08:34:08;6.40;99.90
569;DHT22;269;48.884;9.192;2023-03-01T08:36:40;6.10;99.90
569;DHT22;269;48.884;9.192;2023-03-01T08:39:10;6.30;99.90
569;DHT22;269;48.884;9.192;2023-03-01T08:41:38;6.40;99.90
569;DHT22;269;48.884;9.192;2023-03-01T08:44:05;6.50;99.90
569;DHT22;269;48.884;9.192;2023-03-01T08:46:34;6.70;99.90
569;DHT22;269;48.884;9.192;2023-03-01T08:49:03;7.00;99.90
569;DHT22;269;48.884;9.192;2023-03-01T08:51:31;7.30;99.90
569;DHT22;269;48.884;9.192;2023-03-01T08:54:02;7.60;99.90
569;DHT22;269;48.884;9.192;2023-03-01T08:56:30;7.80;98.80
569;DHT22;269;48.884;9.192;2023-03-01T08:58:57;8.00;98.70
569;DHT22;269;48.884;9.192;2023-03-01T09:01:25;8.40;98.10
569;DHT22;269;48.884;9.192;2023-03-01T09:03:52;8.80;97.80
569;DHT22;269;48.884;9.192;2023-03-01T09:06:19;8.90;96.20
569;DHT22;269;48.884;9.192;2023-03-01T09:08:48;8.30;96.20
569;DHT22;269;48.884;9.192;2023-03-01T09:11:17;8.40;96.80
569;DHT22;269;48.884;9.192;2023-03-01T09:13:46;8.60;96.60
569;DHT22;269;48.884;9.192;2023-03-01T09:16:15;9.30;95.90
569;DHT22;269;48.884;9.192;2023-03-01T09:18:44;9.80;94.80
569;DHT22;269;48.884;9.192;2023-03-01T09:21:13;10.10;93.60
569;DHT22;269;48.884;9.192;2023-03-01T09:23:42;10.40;92.90
569;DHT22;269;48.884;9.192;2023-03-01T09:26:11;10.70;92.20
569;DHT22;269;48.884;9.192;2023-03-01T09:28:39;11.00;91.30
569;DHT22;269;48.884;9.192;2023-03-01T09:31:08;11.30;91.00
569;DHT22;269;48.884;9.192;2023-03-01T09:33:35;11.60;90.30
569;DHT22;269;48.884;9.192;2023-03-01T09:36:04;11.80;88.20
569;DHT22;269;48.884;9.192;2023-03-01T09:38:31;11.90;87.40
569;DHT22;269;48.884;9.192;2023-03-01T09:40:59;12.10;86.30
569;DHT22;269;48.884;9.192;2023-03-01T09:43:30;12.20;83.50
569;DHT22;269;48.884;9.192;2023-03-01T09:46:00;12.10;84.40
569;DHT22;269;48.884;9.192;2023-03-01T09:48:43;12.20;83.80
569;DHT22;269;48.884;9.192;2023-03-01T09:51:15;12.30;83.00
569;DHT22;269;48.884;9.192;2023-03-01T09:53:44;12.50;81.30
569;DHT22;269;48.884;9.192;2023-03-01T09:56:16;12.30;80.60
569;DHT22;269;48.884;9.192;2023-03-01T09:58:50;12.30;81.80
569;DHT22;269;48.884;9.192;2023-03-01T10:01:28;12.50;80.90
569;DHT22;269;48.884;9.192;2023-03-01T10:04:24;12.70;80.50
569;DHT22;269;48.884;9.192;2023-03-01T10:07:00;12.60;79.40
569;DHT22;269;48.884;9.192;2023-03-01T10:09:33;12.80;78.80
569;DHT22;269;48.884;9.192;2023-03-01T10:12:01;12.90;77.60
569;DHT22;269;48.884;9.192;2023-03-01T10:14:34;13.10;77.80
569;DHT22;269;48.884;9.192;2023-03-01T10:17:03;13.10;77.10
569;DHT22;269;48.884;9.192;2023-03-01T10:19:36;13.40;76.70
569;DHT22;269;48.884;9.192;2023-03-01T10:22:11;13.70;75.60
569;DHT22;269;48.884;9.192;2023-03-01T10:24:40;13.50;73.20
569;DHT22;269;48.884;9.192;2023-03-01T10:27:10;12.40;74.60
569;DHT22;269;48.884;9.192;2023-03-01T10:29:46;12.00;76.50
569;DHT22;269;48.884;9.192;2023-03-01T10:32:16;12.20;76.60
569;DHT22;269;48.884;9.192;2023-03-01T10:34:45;12.30;76.20
569;DHT22;269;48.884;9.192;2023-03-01T10:37:14;12.40;76.60
569;DHT22;269;48.884;9.192;2023-03-01T10:40:03;12.70;75.60
569;DHT22;269;48.884;9.192;2023-03-01T10:42:35;12.50;74.60
569;DHT22;269;48.884;9.192;2023-03-01T10:45:22;11.80;75.90
569;DHT22;269;48.884;9.192;2023-03-01T10:48:03;12.30;76.60
569;DHT22;269;48.884;9.192;2023-03-01T10:50:32;12.90;75.60
569;DHT22;269;48.884;9.192;2023-03-01T10:53:00;13.70;75.40
569;DHT22;269;48.884;9.192;2023-03-01T10:55:33;13.90;72.80
569;DHT22;269;48.884;9.192;2023-03-01T10:58:15;14.30;72.90
569;DHT22;269;48.884;9.192;2023-03-01T11:00:48;14.60;71.70
569;DHT22;269;48.884;9.192;2023-03-01T11:03:19;15.00;71.90
569;DHT22;269;48.884;9.192;2023-03-01T11:05:55;15.50;70.00
569;DHT22;269;48.884;9.192;2023-03-01T11:08:40;15.90;67.70
569;DHT22;269;48.884;9.192;2023-03-01T11:11:25;16.10;68.00
569;DHT22;269;48.884;9.192;2023-03-01T11:13:58;16.40;66.70
569;DHT22;269;48.884;9.192;2023-03-01T11:16:30;16.80;65.00
569;DHT22;269;48.884;9.192;2023-03-01T11:19:17;16.70;63.00
569;DHT22;269;48.884;9.192;2023-03-01T11:21:54;15.90;64.40
569;DHT22;269;48.884;9.192;2023-03-01T11:24:29;16.20;64.30
569;DHT22;269;48.884;9.192;2023-03-01T11:26:56;16.50;63.60
569;DHT22;269;48.884;9.192;2023-03-01T11:29:30;16.80;63.10
569;DHT22;269;48.884;9.192;2023-03-01T11:32:01;16.30;61.40
569;DHT22;269;48.884;9.192;2023-03-01T11:34:38;16.20;62.40
569;DHT22;269;48.884;9.192;2023-03-01T11:37:15;16.40;63.00
569;DHT22;269;48.884;9.192;2023-03-01T11:39:48;16.80;62.10
569;DHT22;269;48.884;9.192;2023-03-01T11:42:20;16.50;61.30
569;DHT22;269;48.884;9.192;2023-03-01T11:44:51;16.60;61.80
569;DHT22;269;48.884;9.192;2023-03-01T11:47:31;16.90;61.00
569;DHT22;269;48.884;9.192;2023-03-01T11:50:11;17.20;60.60
569;DHT22;269;48.884;9.192;2023-03-01T11:52:48;17.70;59.90
569;DHT22;269;48.884;9.192;2023-03-01T11:55:30;18.00;59.00
569;DHT22;269;48.884;9.192;2023-03-01T11:58:20;18.30;58.80
569;DHT22;269;48.884;9.192;2023-03-01T12:01:08;18.60;58.10
569;DHT22;269;48.884;9.192;2023-03-01T12:03:52;18.70;57.70
569;DHT22;269;48.884;9.192;2023-03-01T12:06:41;19.00;56.50
569;DHT22;269;48.884;9.192;2023-03-01T12:09:25;19.30;55.80
569;DHT22;269;48.884;9.192;2023-03-01T12:12:18;19.30;57.80
569;DHT22;269;48.884;9.192;2023-03-01T12:18:00;19.20;56.80
569;DHT22;269;48.884;9.192;2023-03-01T12:20:36;19.30;55.00
569;DHT22;269;48.884;9.192;2023-03-01T12:23:29;19.30;54.40
569;DHT22;269;48.884;9.192;2023-03-01T12:26:05;19.50;53.80
569;DHT22;269;48.884;9.192;2023-03-01T12:28:55;19.40;53.20
569;DHT22;269;48.884;9.192;2023-03-01T12:31:46;19.10;53.50
569;DHT22;269;48.884;9.192;2023-03-01T12:34:29;18.90;52.80
569;DHT22;269;48.884;9.192;2023-03-01T12:39:56;19.20;53.70
569;DHT22;269;48.884;9.192;2023-03-01T12:42:37;19.50;53.00
569;DHT22;269;48.884;9.192;2023-03-01T12:45:31;19.00;52.70
569;DHT22;269;48.884;9.192;2023-03-01T12:48:09;18.80;52.80
569;DHT22;269;48.884;9.192;2023-03-01T12:50:42;18.70;52.90
569;DHT22;269;48.884;9.192;2023-03-01T12:53:23;18.60;53.00
569;DHT22;269;48.884;9.192;2023-03-01T12:55:53;18.60;53.10
569;DHT22;269;48.884;9.192;2023-03-01T12:58:26;18.70;52.90
569;DHT22;269;48.884;9.192;2023-03-01T13:01:11;18.50;52.90
569;DHT22;269;48.884;9.192;2023-03-01T13:03:56;18.30;52.90
569;DHT22;269;48.884;9.192;2023-03-01T13:06:34;18.20;52.80
569;DHT22;269;48.884;9.192;2023-03-01T13:09:17;18.10;53.10
569;DHT22;269;48.884;9.192;2023-03-01T13:11:45;18.00;52.70
569;DHT22;269;48.884;9.192;2023-03-01T13:14:45;17.80;53.30
569;DHT22;269;48.884;9.192;2023-03-01T13:17:33;17.80;53.00
569;DHT22;269;48.884;9.192;2023-03-01T13:20:01;18.00;53.20
569;DHT22;269;48.884;9.192;2023-03-01T13:22:32;18.00;53.00
569;DHT22;269;48.884;9.192;2023-03-01T13:25:13;18.20;53.00
569;DHT22;269;48.884;9.192;2023-03-01T13:27:41;18.20;52.80
569;DHT22;269;48.884;9.192;2023-03-01T13:30:39;18.30;52.70
569;DHT22;269;48.884;9.192;2023-03-01T13:33:37;18.30;53.00
569;DHT22;269;48.884;9.192;2023-03-01T13:36:07;18.40;52.90
569;DHT22;269;48.884;9.192;2023-03-01T13:38:38;18.40;52.90
569;DHT22;269;48.884;9.192;2023-03-01T13:41:07;18.40;52.90
569;DHT22;269;48.884;9.192;2023-03-01T13:43:36;18.10;52.30
569;DHT22;269;48.884;9.192;2023-03-01T13:46:11;17.90;52.90
569;DHT22;269;48.884;9.192;2023-03-01T13:48:39;17.00;53.20
569;DHT22;269;48.884;9.192;2023-03-01T13:51:09;16.00;54.50
569;DHT22;269;48.884;9.192;2023-03-01T13:53:41;15.90;55.00
569;DHT22;269;48.884;9.192;2023-03-01T13:56:11;15.90;55.00
569;DHT22;269;48.884;9.192;2023-03-01T13:58:48;16.00;55.20
569;DHT22;269;48.884;9.192;2023-03-01T14:01:24;16.20;55.40
569;DHT22;269;48.884;9.192;2023-03-01T14:03:52;16.30;55.20
569;DHT22;269;48.884;9.192;2023-03-01T14:06:21;16.20;55.30
569;DHT22;269;48.884;9.192;2023-03-01T14:08:51;16.30;55.20
569;DHT22;269;48.884;9.192;2023-03-01T14:11:48;15.50;55.80
569;DHT22;269;48.884;9.192;2023-03-01T14:14:39;15.50;56.40
569;DHT22;269;48.884;9.192;2023-03-01T14:17:24;15.60;56.30
569;DHT22;269;48.884;9.192;2023-03-01T14:19:56;15.60;56.00
569;DHT22;269;48.884;9.192;2023-03-01T14:22:25;15.30;56.40
569;DHT22;269;48.884;9.192;2023-03-01T14:24:56;15.30;56.70
569;DHT22;269;48.884;9.192;2023-03-01T14:27:27;15.50;57.00
569;DHT22;269;48.884;9.192;2023-03-01T14:29:57;15.50;56.80
569;DHT22;269;48.884;9.192;2023-03-01T14:32:27;15.50;56.80
569;DHT22;269;48.884;9.192;2023-03-01T14:34:56;15.70;56.80
569;DHT22;269;48.884;9.192;2023-03-01T14:37:26;15.70;56.40
569;DHT22;269;48.884;9.192;2023-03-01T14:39:54;15.70;56.30
569;DHT22;269;48.884;9.192;2023-03-01T14:42:22;15.20;57.20
569;DHT22;269;48.884;9.192;2023-03-01T14:44:52;15.00;57.10
569;DHT22;269;48.884;9.192;2023-03-01T14:47:28;14.90;57.30
569;DHT22;269;48.884;9.192;2023-03-01T14:49:58;14.70;57.40
569;DHT22;269;48.884;9.192;2023-03-01T14:52:33;14.20;58.00
569;DHT22;269;48.884;9.192;2023-03-01T14:55:04;14.30;58.60
569;DHT22;269;48.884;9.192;2023-03-01T14:57:31;14.50;58.60
569;DHT22;269;48.884;9.192;2023-03-01T15:00:01;14.80;58.40
569;DHT22;269;48.884;9.192;2023-03-01T15:02:33;14.90;58.10
569;DHT22;269;48.884;9.192;2023-03-01T15:05:03;14.90;57.90
569;DHT22;269;48.884;9.192;2023-03-01T15:07:34;14.80;57.80
569;DHT22;269;48.884;9.192;2023-03-01T15:10:05;14.40;57.70
569;DHT22;269;48.884;9.192;2023-03-01T15:12:37;13.50;58.70
569;DHT22;269;48.884;9.192;2023-03-01T15:15:32;12.90;59.80
569;DHT22;269;48.884;9.192;2023-03-01T15:18:04;12.60;60.80
569;DHT22;269;48.884;9.192;2023-03-01T15:20:32;12.60;61.10
569;DHT22;269;48.884;9.192;2023-03-01T15:23:03;12.70;61.10
569;DHT22;269;48.884;9.192;2023-03-01T15:25:31;13.00;61.00
569;DHT22;269;48.884;9.192;2023-03-01T15:28:00;13.00;60.70
569;DHT22;269;48.884;9.192;2023-03-01T15:30:31;13.10;60.30
569;DHT22;269;48.884;9.192;2023-03-01T15:33:19;13.20;60.30
569;DHT22;269;48.884;9.192;2023-03-01T15:35:48;13.30;60.30
569;DHT22;269;48.884;9.192;2023-03-01T15:38:31;13.30;60.30
569;DHT22;269;48.884;9.192;2023-03-01T15:40:59;13.20;60.10
569;DHT22;269;48.884;9.192;2023-03-01T15:43:45;12.90;60.20
569;DHT22;269;48.884;9.192;2023-03-01T15:46:22;12.70;60.60
569;DHT22;269;48.884;9.192;2023-03-01T15:48:54;12.50;61.00
569;DHT22;269;48.884;9.192;2023-03-01T15:51:27;12.30;61.30
569;DHT22;269;48.884;9.192;2023-03-01T15:53:57;12.20;61.80
569;DHT22;269;48.884;9.192;2023-03-01T15:56:25;12.00;62.30
569;DHT22;269;48.884;9.192;2023-03-01T15:58:52;11.90;62.10
569;DHT22;269;48.884;9.192;2023-03-01T16:01:19;11.70;62.50
569;DHT22;269;48.884;9.192;2023-03-01T16:03:47;11.70;63.00
569;DHT22;269;48.884;9.192;2023-03-01T16:06:15;11.60;62.90
569;DHT22;269;48.884;9.192;2023-03-01T16:08:42;11.50;63.00
569;DHT22;269;48.884;9.192;2023-03-01T16:11:14;11.40;63.20
569;DHT22;269;48.884;9.192;2023-03-01T16:13:43;11.30;63.50
569;DHT22;269;48.884;9.192;2023-03-01T16:16:11;11.10;63.90
569;DHT22;269;48.884;9.192;2023-03-01T16:18:42;11.00;64.20
569;DHT22;269;48.884;9.192;2023-03-01T16:21:18;10.90;64.70
569;DHT22;269;48.884;9.192;2023-03-01T16:23:46;10.70;65.00
569;DHT22;269;48.884;9.192;2023-03-01T16:26:13;10.70;65.40
569;DHT22;269;48.884;9.192;2023-03-01T16:28:41;10.50;65.60
569;DHT22;269;48.884;9.192;2023-03-01T16:31:09;10.50;66.00
569;DHT22;269;48.884;9.192;2023-03-01T16:33:36;10.30;66.00
569;DHT22;269;48.884;9.192;2023-03-01T16:36:07;10.10;66.60
569;DHT22;269;48.884;9.192;2023-03-01T16:38:36;10.00;66.80
569;DHT22;269;48.884;9.192;2023-03-01T16:41:03;9.80;68.40
569;DHT22;269;48.884;9.192;2023-03-01T16:43:31;9.60;68.80
569;DHT22;269;48.884;9.192;2023-03-01T16:45:58;9.50;69.30
569;DHT22;269;48.884;9.192;2023-03-01T16:48:26;9.30;69.70
569;DHT22;269;48.884;9.192;2023-03-01T16:50:57;9.20;70.10
569;DHT22;269;48.884;9.192;2023-03-01T16:53:24;9.20;70.60
569;DHT22;269;48.884;9.192;2023-03-01T16:55:57;9.00;70.80
569;DHT22;269;48.884;9.192;2023-03-01T16:58:24;8.90;71.30
569;DHT22;269;48.884;9.192;2023-03-01T17:00:52;8.80;71.80
569;DHT22;269;48.884;9.192;2023-03-01T17:03:20;8.70;72.30
569;DHT22;269;48.884;9.192;2023-03-01T17:05:47;8.60;72.80
569;DHT22;269;48.884;9.192;2023-03-01T17:08:14;8.40;73.20
569;DHT22;269;48.884;9.192;2023-03-01T17:10:42;8.30;73.50
569;DHT22;269;48.884;9.192;2023-03-01T17:13:10;8.20;74.10
569;DHT22;269;48.884;9.192;2023-03-01T17:15:38;8.10;74.50